Warning: Javascript must be enabled to use all the features on this page!


Page Loading - Please Wait...

Click to hideNews Bulletins

Streamflow Measurements for the Nation


USGS 02290918 LOSTMANS RIVER BELOW SECOND BAY, FL


Monroe County, Florida
Hydrologic Unit Code 03090202
Latitude  25°33'20", Longitude  81°09'53" NAD83
Output formats
HTML table with channel data
HTML table without channel data
Tab-separated data with channel data
Tab-separated data without channel data
Graph of data
Reselect output format
Meas.
Number
  Date       Time Time
Datum
Measurement
Used?
  Who Measuring
Agency
Stream
flow
(ft3/s)
Gage
Height
(ft)
GH
Change
(ft)
Meas.
Duration
(hr)
Meas.
Rated
  Control Flow
Adjust.
Code
 
4302019-10-10 12:33EDTYesRMC/JGWUSGS-201001.33 Good NONE
4292019-10-10 11:57:52EDTYesRMC/JGWUSGS-203001.25 Good NONE
4282019-10-10 11:23:04EDTYesRMC/JGWUSGS-189001.11 Good NONE
4272019-08-12 15:19:33EDTYesRMC/JGWUSGS83600.19 Poor NONE
4262019-08-12 15:06:58EDTYesRMC/JGWUSGS58500.27 Poor NONE
4252019-08-12 14:51:40EDTYesRMC/JGWUSGS15300.40 Poor NONE
4242019-08-12 14:39:14EDTYesRMC/JGWUSGS-17700.51 Poor NONE
4232019-08-12 14:05:57EDTYesRMC/JGWUSGS-86300.70 Poor NONE
4222019-08-12 13:24:31EDTYesRMC/JGWUSGS-155000.91 Poor NONE
4212019-06-17 14:08:24EDTYesRMC/DMSUSGS-272001.22 Fair NONE
4202019-06-17 13:25:22EDTYesRMC/DMSUSGS-229000.95 Good NONE
4192019-04-24 15:37:52EDTYesRMC/JGWUSGS-16300-0.02 Good NONE
4182019-04-24 15:06:20EDTYesRMC/JGWUSGS-13600-0.23 Fair NONE
4172019-04-24 14:55:34EDTYesRMC/JGWUSGS-13200-0.30 Good NONE
4162019-02-12 12:27:48ESTYesRMC/JGWUSGS9880-0.88 Good NONE
4152019-02-12 11:35:59ESTYesRMC/JGWUSGS9900-0.79 Good NONE
4142018-12-10 14:56:09ESTYesRMC/JGWUSGS-147000.03 Fair NONE
4132018-12-10 14:20:40ESTYesRMC/JGWUSGS-14200-0.13 Good NONE
4122018-11-05 14:14:05ESTYesRMC/JGWUSGS-34800.34 Poor NONE
4112018-11-05 14:01:40ESTYesRMC/JGWUSGS-59300.41 Poor NONE
4102018-11-05 13:31:13ESTYesRMC/JGWUSGS-128000.64 Poor NONE
4092018-08-14 14:45:58EDTYesRMC/RDHUSGS-137000.11 Fair NONE
4082018-08-14 14:11:11EDTYesRMC/RDHUSGS-7920-0.07 Fair NONE
4072018-08-14 14:01:16EDTYesRMC/RDHUSGS-4410-0.14 Fair NONE
4062018-08-14 13:51:24EDTYesRMC/RDHUSGS-299-0.27 Fair NONE
4052018-08-14 13:41:45EDTYesRMC/RDHUSGS2890-0.40 Fair NONE
4042018-08-14 12:54:01EDTYesRMC/RDHUSGS11200-0.87 Fair NONE
4032018-06-28 11:51:21EDTYesRMC/RDHUSGS-149000.07 Fair NONE
4022018-06-28 11:19:38EDTYesRMC/RDHUSGS-9760-0.13 Fair NONE
4012018-06-28 11:09:13EDTYesRMC/RDHUSGS-7420-0.20 Fair NONE
4002018-06-28 10:58:25EDTYesRMC/RDHUSGS-4500-0.27 Fair NONE
3992018-06-27 11:53:45EDTYesRMC/RDHUSGS-192000.33 Fair NONE
3982018-06-27 10:50:57EDTYesRMC/RDHUSGS-12100-0.13 Poor NONE
3972018-06-27 10:29:44EDTYesRMC/RDHUSGS-7070-0.27 Poor NONE
3962018-06-27 10:08:24EDTYesRMC/RDHUSGS-425-0.46 Poor NONE
3952018-04-26 14:42:10EDTYesRMC/RDHUSGS898-0.17 Poor NONE
3942018-04-26 14:31:42EDTYesRMC/RDHUSGS-1370-0.09 Poor NONE
3932018-04-26 14:05:41EDTYesRMC/RDHUSGS-68700.09 Poor NONE
3922018-04-26 13:55:07EDTYesRMC/RDHUSGS-84600.14 Poor NONE
3912018-04-26 13:43:50EDTYesRMC/RDHUSGS-114000.24 Poor NONE
3862017-12-19 13:50:58ESTYesRMC/RHUSGS-15500-0.05 Good NONE
3852017-12-19 13:14:32ESTYesRMC/RHUSGS-12500-0.29 Poor NONE
3842017-12-19 12:42:53ESTYesRMC/RHUSGS-8470-0.44 Poor NONE
3832017-10-23 13:48:05EDTYesRMC/CTUSGS4490-0.03 Poor NONE
3822017-10-23 13:34:37EDTYesRMC/CTUSGS7680-0.20 Poor NONE
3812017-10-23 12:56:38EDTYesRMC/CTUSGS12700-0.54 Poor NONE
3802017-08-17 11:48:26EDTYesRMC/RDHUSGS-78100.59 Fair MEAS
3792017-08-17 11:39:45EDTYesRMC/RDHUSGS-94800.64 Poor MEAS
3782017-08-17 11:30:46EDTYesRMC/RDHUSGS-108000.69 Poor MEAS
3772017-08-17 11:02:10EDTYesRMC/RDHUSGS-146000.78 Poor MEAS
3762017-08-17 10:48:05EDTYesRMC/RDHUSGS-169000.83 Fair MEAS
3752017-08-17 10:06:12EDTYesRMC/RDHUSGS-171000.78 Good NONE
3742017-06-14 14:18:34EDTYesRMC/RHUSGS-3040-0.19 Poor NONE
3732017-06-14 14:10:56EDTYesRMC/RHUSGS-1390-0.25 Poor NONE
3722017-06-14 12:55:21EDTYesRMC/RHUSGS8950-0.67 Poor NONE
3712017-06-14 12:47:24EDTYesRMC/RHUSGS10100-0.75 Poor NONE
3702017-06-14 12:39:18EDTYesRMC/RHUSGS10900-0.79 Poor NONE
3692017-06-14 12:03:14EDTYesRMC/RHUSGS12000-0.82 Fair NONE
3682017-04-18 13:11:12EDTYesRMC/RHUSGS8290-0.88 Fair NONE
3672017-04-18 12:26:34EDTYesRMC/RHUSGS8060-0.80 Fair NONE
3662017-02-09 12:53:12ESTYesRDH/RMCUSGS-213000.33 Good NONE
3652017-02-09 12:13:49ESTYesRDH/RMCUSGS-198000.10 Fair NONE
3642016-12-27 14:55:07ESTYesRDH/DMSUSGS-7510-0.14 PoorUnspecifedNONE
3632016-12-27 14:17:07ESTYesRDH/DMSUSGS-122000.02 PoorUnspecifedNONE
3622016-10-19 10:49:42EDTYesRMC/RDHUSGS17300-0.53 Good NONE
3612016-10-19 10:03:46EDTYesRMC/RDHUSGS16900-0.40 Good NONE
3602016-08-26 10:29:25EDTYesTmk/RMCUSGS-66500.45-0.020.00Poor NONE
3592016-08-26 10:18:58EDTYesTmk/RMCUSGS-72600.47-0.020.00Fair NONE
3582016-08-26 09:48:34EDTYesTmk/RMCUSGS-129000.63-0.040.00Poor NONE
3572016-08-26 09:36:36EDTYesTmk/RMCUSGS-142000.66-0.020.00Fair NONE
3562016-06-15 14:40:59EDTYesTmk/RCUSGS10500-0.20-0.110.00Poor NONE
3552016-06-15 14:14:59EDTYesTmk/RCUSGS8280-0.05-0.060.00Poor NONE
3542016-06-15 14:06:01EDTYesTmk/RCUSGS70400.00-0.040.00Poor NONE
3532016-06-15 13:43:35EDTYesTmk/RCUSGS37100.10-0.060.00Poor NONE
3522016-06-15 13:34:01EDTYesTmk/RCUSGS15000.17-0.060.00Poor NONE
3512016-06-15 13:11:30EDTYesTmk/RCUSGS-35800.33-0.060.00Poor NONE
3502016-06-15 13:02:19EDTYesTmk/RCUSGS-59900.40-0.070.00Poor NONE
3492016-06-15 12:32:09EDTYesTmk/RCUSGS-106000.57-0.080.00Poor NONE
3482016-06-15 12:01:30EDTYesTmk/RCUSGS-146000.70-0.030.00Poor NONE
3472016-06-15 11:52:12EDTYesTmk/RCUSGS-163000.73-0.040.00Poor NONE
3462016-06-15 11:23:03EDTYesTmk/RCUSGS-185000.770.010.00Fair NONE
3452016-06-15 10:42:06EDTYesTmk/RCUSGS-198000.730.080.00Good NONE
3442016-04-19 13:04:08EDTYesTmK/RmCUSGS-198000.350.030.00Good NONE
3432016-04-19 12:29:49EDTYesTmK/RmCUSGS-199000.210.120.00Good NONE
3422016-04-19 11:56:30EDTYesTmK/RmCUSGS-17600-0.040.170.00Fair NONE
3412016-02-11 11:11:50ESTYesTMK/RCUSGS14200-1.16-0.030.00Poor NONE
3402016-02-11 10:25:28ESTYesTMK/RCUSGS14700-1.08-0.070.00Good NONE
3392016-02-11 09:40:49ESTYesTMK/RCUSGS15000-0.99-0.080.00Good NONE
3382015-12-16 12:32:31ESTYesTMK/RCUSGS14200-0.93 Fair NONE
3372015-12-16 12:23:16ESTYesTMK/RCUSGS14800-0.93 Fair NONE
3362015-12-16 11:57:23ESTYesTMK/RCUSGS15000-0.90 Good NONE
3352015-12-16 11:26:33ESTYesTMK/RCUSGS15300-0.85 Good NONE
3342015-12-16 10:54:17ESTYesTMK/RCUSGS15400-0.77 Good NONE
3332015-12-16 10:11:45ESTYesTMK/RCUSGS15300-0.64 Good NONE
3322015-10-14 11:17:25EDTYesRMC/DSUSGS15800-0.41 Fair NONE
3312015-10-14 10:43:24EDTYesRMC/DSUSGS17300-0.47 Good NONE
3302015-10-14 09:59:48EDTYesRMC/DSUSGS18000-0.40 Good NONE
3292015-08-12 11:00:20EDTYesTMK/RCUSGS-183000.47 Poor NONE
3282015-08-12 10:32:24EDTYesTMK/RCUSGS-147000.24 Poor NONE
3272015-08-12 10:10:07EDTYesTMK/RCUSGS-112000.08 Poor NONE
3262015-08-12 09:44:47EDTYesTMK/RCUSGS-5380-0.06 Poor NONE
3252015-08-12 09:36:55EDTYesTMK/RCUSGS-2900-0.12 Poor NONE
3242015-08-12 09:31:55EDTYesTMK/RCUSGS-825-0.17 Poor NONE
3232015-08-12 09:26:51EDTYesTMK/RCUSGS-6.81-0.21 Poor NONE
3222015-08-12 09:22:05EDTYesTMK/RCUSGS1570-0.25 Poor NONE
3212015-08-12 09:14:12EDTYesTMK/RCUSGS3220-0.31 Poor NONE
3202015-08-12 09:03:31EDTYesTMK/RCUSGS6210-0.44 Poor NONE
3192015-08-12 08:53:10EDTYesTMK/RCUSGS7800-0.53 Poor NONE
3182015-06-25 13:09:10EDTYesTMK/RCUSGS8630-0.65 Poor NONE
3172015-06-25 12:43:42EDTYesTMK/RCUSGS7780-0.55 Poor NONE
3162015-06-25 12:18EDTYesTMK/RCUSGS6520-0.47 Poor NONE
3152015-06-25 11:56:37EDTYesTMK/RCUSGS3680-0.40 Poor NONE
3142015-06-25 11:45:43EDTYesTMK/RCUSGS1360-0.33 Poor NONE
3132015-06-25 11:34:30EDTYesTMK/RCUSGS-1000-0.26 Poor NONE
3122015-06-25 11:19:25EDTYesTMK/RCUSGS-3490-0.19 Poor NONE
3112015-06-25 10:57:48EDTYesTMK/RCUSGS-7610-0.04 Poor NONE
3102015-06-25 10:45:12EDTYesTMK/RCUSGS-88000.00 Poor NONE
3092015-06-25 10:17:39EDTYesTMK/RCUSGS-122000.10 Poor NONE
3082015-06-25 10:04:11EDTYesTMK/RCUSGS-125000.10 Poor NONE
3072015-06-25 09:43:15EDTYesTMK/RCUSGS-138000.13 Poor NONE
3062015-06-25 09:28:10EDTYesTMK/RCUSGS-155000.16 Poor NONE
3052015-04-14 13:00:20EDTYesTMK/RCUSGS-7910-0.19 Fair NONE
3042015-04-14 12:48:01EDTYesTMK/RCUSGS-9870-0.12 Fair NONE
3032015-04-14 12:10:17EDTYesTMK/RCUSGS-134000.00 Fair NONE
3022015-01-22 15:53:18ESTYesTMK/RCUSGS-202000.87 Fair NONE
3012015-01-22 15:12:16ESTYesTMK/RCUSGS-228000.84 Fair NONE
3002015-01-22 14:59:23ESTYesTMK/RCUSGS-226000.80 Fair NONE
2992014-12-04 12:02:02ESTYesTMK/RCUSGS-198000.71 Fair NONE
2982014-12-04 11:32ESTYesTMK/RCUSGS-192000.57 Fair NONE
2972014-12-04 11:05:56ESTYesTMK/RCUSGS-177000.40 Fair NONE
2962014-12-04 10:36:34ESTYesTMK/RCUSGS-150000.15 Fair NONE
2952014-12-04 10:12:15ESTYesTMK/RCUSGS-116000.00 Fair NONE
2942014-12-04 10:04:23ESTYesTMK/RCUSGS-10400-0.04 Poor NONE
2932014-12-04 09:59:14ESTYesTMK/RCUSGS-9600-0.06 Poor NONE
2922014-12-04 09:54:17ESTYesTMK/RCUSGS-8540-0.11 Poor NONE
2912014-12-04 09:49:31ESTYesTMK/RCUSGS-7540-0.14 Poor NONE
2902014-12-04 09:44:51ESTYesTMK/RCUSGS-6060-0.18 Poor NONE
2892014-12-04 09:40:30ESTYesTMK/RCUSGS-4370-0.23 Poor NONE
2882014-12-04 09:35:57ESTYesTMK/RCUSGS-2720-0.28 Poor NONE
2872014-12-04 09:31:30ESTYesTMK/RCUSGS-793-0.33 Poor NONE
2862014-12-04 09:26:47ESTYesTMK/RCUSGS1130-0.40 Poor NONE
2852014-12-04 09:22ESTYesTMK/RCUSGS2620-0.47 Poor NONE
2842014-10-21 11:59:13EDTYesTMK/RCUSGS-203000.66 Fair NONE
2832014-10-21 11:33:56EDTYesTMK/RCUSGS-191000.49 Fair NONE
2822014-10-21 11:02:55EDTYesTMK/RCUSGS-162000.22 Fair NONE
2812014-09-03 15:01:10EDTYesTMK/RCUSGS15000-0.83 Good NONE
2802014-09-03 14:41:39EDTYesTMK/RCUSGS15000-0.78 Good NONE
2792014-09-03 14:04:27EDTYesTMK/RCUSGS14600-0.67 Good NONE
2782014-07-23 11:51:35EDTYesTMK/RCUSGS-189000.67 Fair NONE
2772014-07-23 11:13:07EDTYesTMK/RCUSGS-187000.53 Fair NONE
2762014-07-23 10:46:01EDTYesTMK/RCUSGS-175000.40 Fair NONE
2752014-07-23 10:18:19EDTYesTMK/RCUSGS-160000.25 Fair NONE
2742014-07-23 10:02:13EDTYesTMK/RCUSGS-149000.13 Fair NONE
2732014-07-23 09:53:55EDTYesTMK/RCUSGS-143000.08 Fair NONE
2722014-07-23 09:46:14EDTYesTMK/RCUSGS-137000.04 Fair NONE
2712014-07-23 09:38:53EDTYesTMK/RCUSGS-131000.00 Fair NONE
2702014-07-23 09:21:57EDTYesTMK/RCUSGS-11500-0.08 Fair NONE
2692014-06-03 13:21:26EDTYesTMK/RCUSGS9480-1.22 Good NONE
2682014-06-03 12:56:15EDTYesTMK/RCUSGS9760-1.21 Good NONE
2672014-06-03 12:16:49EDTYesTMK/RCUSGS10100-1.14 Good NONE
2662014-04-10 11:56:54EDTYesTMK/RCUSGS-8680-0.68 Fair NONE
2652014-04-10 11:51:29EDTYesTMK/RCUSGS-8410-0.67 Fair NONE
2642014-04-10 11:26:58EDTYesTMK/RCUSGS-9000-0.72 Fair NONE
2632014-04-10 11:20:08EDTYesTMK/RCUSGS-8850-0.74 Fair NONE
2622014-04-10 10:50:57EDTYesTMK/RCUSGS-7710-0.85 Fair NONE
2612014-04-10 10:44:08EDTYesTMK/RCUSGS-7320-0.87 Fair NONE
2602014-04-10 10:25:49EDTYesTMK/RCUSGS-6280-0.92 Fair NONE
2592014-04-10 10:19:11EDTYesTMK/RCUSGS-5340-0.96 Fair NONE
2582014-04-10 10:04:08EDTYesTMK/RCUSGS-3720-1.03 Fair NONE
2572014-04-10 09:57:55EDTYesTMK/RCUSGS-2690-1.06 Fair NONE
2562014-02-06 16:00:42ESTYesTMK/RCUSGS-13100-0.32 Fair NONE
2552014-02-06 15:53:50ESTYesTMK/RCUSGS-12400-0.37 Fair NONE
2542014-02-06 15:35:04ESTYesTMK/RCUSGS-10900-0.45 Fair NONE
2532014-02-06 15:28:52ESTYesTMK/RCUSGS-10600-0.47 Fair NONE
2522014-02-06 15:06:36ESTYesTMK/RCUSGS-6350-0.57 Fair NONE
2512014-02-06 14:58:54ESTYesTMK/RCUSGS-5210-0.61 Fair NONE
2502014-02-06 14:51:55ESTYesTMK/RCUSGS-3090-0.64 Fair NONE
2492014-02-06 14:45:19ESTYesTMK/RCUSGS-1340-0.69 Fair NONE
2482014-02-06 14:32:50ESTYesTMK/RCUSGS2440-0.79 Fair NONE
2472014-02-06 14:24:44ESTYesTMK/RCUSGS4070-0.88 Fair NONE
2462014-02-06 13:57:49ESTYesTMK/RCUSGS7890-1.04 Good NONE
2452014-02-06 13:31:30ESTYesTMK/RCUSGS9290-1.10 Good NONE
2442013-12-12 13:56:25ESTYesTMK/RCUSGS11100-0.80 Fair NONE
2432013-12-12 13:27ESTYesTMK/RCUSGS10700-0.68 Fair NONE
2422013-12-12 13:09:39ESTYesTMK/RCUSGS9860-0.62 Fair NONE
2412013-12-12 13:03:08ESTYesTMK/RCUSGS9290-0.58 Fair NONE
2402013-10-23 14:14:45EDTYesTMK/MBUSGS2030-0.15 Fair NONE
2392013-10-23 14:07:06EDTYesTMK/MBUSGS3470-0.19 Fair NONE
2382013-10-23 14:00:20EDTYesTMK/MBUSGS5180-0.26 Fair NONE
2372013-10-23 13:53:38EDTYesTMK/MBUSGS7040-0.36 Fair NONE
2362013-10-23 13:23:56EDTYesTMK/MBUSGS11300-0.58 Poor NONE
2352013-08-15 11:31:05EDTYesTMK/MBUSGS9960-0.11 Fair NONE
2342013-08-15 11:22:02EDTYesTMK/MBUSGS9220-0.07 Fair NONE
2332013-08-15 11:13:36EDTYesTMK/MBUSGS8070-0.03 Fair NONE
2322013-08-15 11:06:01EDTYesTMK/MBUSGS67800.04 Fair NONE
2312013-08-15 10:48:56EDTYesTMK/MBUSGS36000.15 Fair NONE
2302013-08-15 10:42:24EDTYesTMK/MBUSGS21000.20 Fair NONE
2292013-08-15 10:28:07EDTYesTMK/MBUSGS-14200.30 Fair NONE
2282013-08-15 10:21:26EDTYesTMK/MBUSGS-26500.34 Fair NONE
2272013-08-15 10:00:49EDTYesTMK/MBUSGS-56400.42 Fair NONE
2262013-08-15 09:54:24EDTYesTMK/MBUSGS-61800.45 Fair NONE
2252013-08-15 09:37:42EDTYesTMK/MBUSGS-87300.52 Fair NONE
2242013-08-15 09:31:29EDTYesTMK/MBUSGS-93000.54 Fair NONE
2232013-06-20 11:31:22EDTYesTMK/MBUSGS-199000.73 Fair NONE
2222013-06-20 11:26:05EDTYesTMK/MBUSGS-198000.72 Fair NONE
2212013-06-20 10:55:53EDTYesTMK/MBUSGS-202000.61 Fair NONE
2202013-06-20 10:50:16EDTYesTMK/MBUSGS-199000.57 Fair NONE
2192013-06-20 10:26:58EDTYesTMK/MBUSGS-180000.39 Fair NONE
2182013-06-20 10:21:30EDTYesTMK/MBUSGS-178000.36 Fair NONE
2172013-06-20 09:59:24EDTYesTMK/MBUSGS-160000.22 Fair NONE
2162013-06-20 09:54:23EDTYesTMK/MBUSGS-155000.19 Fair NONE
2152013-06-20 09:34:32EDTYesTMK/MBUSGS-144000.04 Fair NONE
2142013-06-20 09:28:56EDTYesTMK/MBUSGS-13900-0.01 Fair NONE
2132013-06-20 09:11:18EDTYesTMK/MBUSGS-12000-0.16 Fair NONE
2122013-06-20 09:03:51EDTYesTMK/MBUSGS-11500-0.20 Fair NONE
2112013-06-14 10:56:59EDTYesTMK/MBUSGS12100-0.71 Fair NONE
2102013-06-14 10:48:15EDTYesTMK/MBUSGS11700-0.67 Fair NONE
2092013-06-14 10:31:05EDTYesTMK/MBUSGS11600-0.60 Fair NONE
2082013-06-14 10:23:43EDTYesTMK/MBUSGS11400-0.57 Fair NONE
2072013-06-14 09:56:44EDTYesTMK/MBUSGS10800-0.47 Fair NONE
2062013-05-02 13:40:04EDTYesTMK/MCBUSGS-2100-0.06 Poor NONE
2052013-05-02 13:33:27EDTYesTMK/MCBUSGS665-0.26 Poor NONE
2042013-05-02 12:25:02EDTYesTMK/MCBUSGS9520-0.54 Poor NONE
2032013-03-20 10:49:07EDTYesTMK/MCBUSGS-8620-0.35 Fair NONE
2022013-03-20 10:19:12EDTYesTMK/MCBUSGS-9310-0.34 Fair NONE
2012013-03-20 10:03:03EDTYesTMK/MCBUSGS-10200-0.33 Fair NONE
2002013-02-04 13:40:36ESTYesTMK/MBUSGS8440-1.26 Fair NONE
1992013-02-04 13:06:44ESTYesTMK/MBUSGS8690-1.22 Fair NONE
1982013-02-04 12:29:25ESTYesTMK/MBUSGS8440-1.15 Fair NONE
1972012-12-06 10:22:45ESTYesTMK/MCBUSGS12100-0.60 Fair NONE
1962012-12-06 09:52:06ESTYesTMK/MCBUSGS11800-0.53 Fair NONE
1952012-10-18 10:53:04EDTYesTMK/CTUSGS16900-0.48 Fair NONE
1942012-10-18 10:15:19EDTYesTMK/CTUSGS17100-0.39 Fair NONE
1932012-09-05 15:27:19EDTYesTMK/KSUSGS-114000.25 Fair NONE
1922012-09-05 15:21:56EDTYesTMK/KSUSGS-110000.22 Fair NONE
1912012-09-05 15:05:33EDTYesTMK/KSUSGS-87100.13 Fair NONE
1902012-09-05 14:59:18EDTYesTMK/KSUSGS-73300.09 Fair NONE
1892012-09-05 14:52:49EDTYesTMK/KSUSGS-54800.04 Fair NONE
1882012-09-05 14:46:28EDTYesTMK/KSUSGS-3370-0.02 Fair NONE
1872012-09-05 14:41:09EDTYesTMK/KSUSGS-2150-0.06 Fair NONE
1862012-09-05 14:36:05EDTYesTMK/KSUSGS-750-0.11 Fair NONE
1852012-09-05 14:28:40EDTYesTMK/KSUSGS929-0.17 Fair NONE
1842012-09-05 14:23:52EDTYesTMK/KSUSGS2580-0.24 Fair NONE
1832012-09-05 14:18:33EDTYesTMK/KSUSGS3620-0.29 Fair NONE
1822012-09-05 14:12:52EDTYesTMK/KSUSGS4490-0.34 Fair NONE
1812012-04-11 10:14:01EDTYesTMK/KSUSGS10000-0.60 Poor NONE
1802012-04-11 10:05:13EDTYesTMK/KSUSGS9710-0.55 Poor NONE
1792012-04-11 09:56:39EDTYesTMK/KSUSGS9710-0.52 Poor NONE
1782012-04-11 09:47:49EDTYesTMK/KSUSGS9240-0.49 Poor NONE
1772012-02-22 14:03:40ESTYesTMK/KSUSGS-205000.28 Poor NONE
1762012-02-22 13:54:41ESTYesTMK/KSUSGS-204000.25 Poor NONE
1752012-02-22 13:43:57ESTYesTMK/KSUSGS-201000.21 Poor NONE
1742012-02-22 13:37:19ESTYesTMK/KSUSGS-204000.18 Poor NONE
1732012-02-22 13:30:52ESTYesTMK/KSUSGS-199000.15 Poor NONE
1722012-02-22 13:24:07ESTYesTMK/KSUSGS-199000.10 Poor NONE
1712011-11-16 14:02:17ESTYesTMK/KSUSGS-487-0.42 Poor NONE
1702011-11-16 13:56:06ESTYesTMK/KSUSGS1320-0.49 Poor NONE
1692011-11-16 13:50:12ESTYesTMK/KSUSGS2880-0.55 Poor NONE
1682011-11-16 13:43:31ESTYesTMK/KSUSGS4740-0.64 Poor NONE
1672011-11-16 13:36:31ESTYesTMK/KSUSGS6640-0.72 Poor NONE
1662011-11-16 13:29:06ESTYesTMK/KSUSGS8060-0.82 Poor NONE
1652011-11-16 13:20:40ESTYesTMK/KSUSGS9410-0.90 Poor NONE
1642011-11-16 13:12:13ESTYesTMK/KSUSGS10600-0.98 Poor NONE
1632011-08-02 12:24:49EDTYesacb/tmkUSGS8510-0.750.080.10PoorClearNONE
1622011-08-02 12:16:42EDTYesacb/tmkUSGS10000-0.840.080.10PoorClearNONE
1612011-08-02 12:07:46EDTYesacb/tmkUSGS11100-0.920.090.20PoorClearNONE
1602011-08-02 11:58:14EDTYesacb/tmkUSGS12500-0.99 PoorClearNONE
1592011-05-12 12:05:09EDTYesACB/TMKUSGS-5840-0.05 0.20FairClearNONE
1582011-05-12 11:49:35EDTYesACB/TMKUSGS-78500.01 0.20FairClearNONE
1572011-05-12 11:40:03EDTYesACB/TMKUSGS-85200.04 0.20FairClearNONE
1562011-05-12 11:30:46EDTYesACB/TMKUSGS-92400.07 0.10FairClearNONE
1552011-02-16 14:07:39ESTYesACB/TMKUSGS-11000-0.41 0.10PoorClearNONE
1542011-02-16 13:59:53ESTYesACB/TMKUSGS-12100-0.36 0.10PoorClearNONE
1532011-02-16 13:52:24ESTYesACB/TMKUSGS-12400-0.35 0.10PoorClearNONE
1522011-02-16 13:45:11ESTYesACB/TMKUSGS-13300-0.33 0.10PoorClearNONE
1512010-11-17 14:53:57ESTYesACB//TMKUSGS11200-0.16 0.10PoorClearNONE
1502010-11-17 14:45:29ESTYesACB/TMKUSGS10800-0.13 0.10PoorClearNONE
1492010-11-17 14:23:16ESTYesACB/TMKUSGS9250-0.03 0.10PoorClearNONE
1482010-11-17 14:14:46ESTYesACB/TMKUSGS84200.02 0.10PoorClearNONE
1472010-11-17 14:06:04ESTYesACB/TMKUSGS74500.06 0.20PoorClearNONE
1462010-11-17 13:58:01ESTYesACB/TMKUSGS65900.10 0.10PoorClearNONE
1452010-08-18 11:37:10EDTYesACB/TMKUSGS68700.14 0.10PoorClearNONE
1442010-08-18 11:25:34EDTYesACB/TMKUSGS44600.20 0.30PoorClearNONE
1432010-08-18 11:12:51EDTYesACB/TMKUSGS26500.24 0.20PoorClearNONE
1422010-08-18 11:00:08EDTYesACB/TMKUSGS-3230.32 0.30PoorClearNONE
1412010-05-18 13:23:35EDTYesACB/TKUSGS4140-0.75 0.10PoorClearNONE
1402010-05-18 13:16:02EDTYesACB/TKUSGS5630-0.83 0.10PoorClearNONE
1392010-05-18 13:08:34EDTYesACB/TKUSGS6450-0.89 0.10PoorClearNONE
1382010-05-18 13:01:33EDTYesACB/TKUSGS7380-0.94 0.10PoorClearNONE
1372010-02-23 14:50:09ESTYesACB/MCBUSGS6590-0.73 0.00PoorClearNONE
1362010-02-23 14:43:32ESTYesACB/MCBUSGS7540-0.70 0.20PoorUnspecifedNONE
1352010-02-23 14:31:04ESTYesACB/MCBUSGS7400-0.68 0.20PoorUnspecifedNONE
1342010-02-23 14:21:05ESTYesACB/MCBUSGS7110-0.66 0.10PoorUnspecifedNONE
1332009-12-01 14:46ESTYesACB/TKUSGS-102000.65 UnspecifiedUnspecifedNONE
1322009-12-01 14:41ESTYesACB/TKUSGS-114000.69 UnspecifiedUnspecifedNONE
1312009-12-01 14:36ESTYesACB/TKUSGS-126000.73 UnspecifiedUnspecifedNONE
1302009-12-01 14:30ESTYesACB/TKUSGS-136000.77 PoorUnspecifedNONE
1292009-09-04 11:36EDTYesACB/AEUSGS-11900 UnspecifiedUnspecifedNONE
1282009-09-04 11:30EDTYesACB/AEUSGS-11000 UnspecifiedUnspecifedNONE
1272009-09-04 11:25EDTYesACB/AEUSGS-9690 UnspecifiedUnspecifedNONE
1262009-09-04 11:19EDTYesACB/LESUSGS-8120 UnspecifiedUnspecifedNONE
1252009-05-04 16:17EDTYesAB/AEUSGS10400 Unspecified NONE
1242009-05-04 16:08EDTYesAB/AEUSGS10100 Unspecified NONE
1232009-05-04 15:54EDTYesAB/AEUSGS9710 Unspecified NONE
1222009-05-04 15:46EDTYesAB/AEUSGS9330 Unspecified NONE
1212009-02-10 15:24ESTYesAB/MBUSGS-16000 Unspecified NONE
1202009-02-10 15:17ESTYesAB/MBUSGS-16600 Unspecified NONE
1192009-02-10 15:11ESTYesAB/MBUSGS-17500 Unspecified NONE
1182009-02-10 15:04ESTYesAB/MBUSGS-18000 Unspecified NONE
1172009-02-10 14:57ESTYesAB/MBUSGS-18700 Unspecified NONE
1162009-02-10 14:51ESTYesAB/MBUSGS-18900 Unspecified NONE
1152009-02-10 14:44ESTYesAB/MBUSGS-19200 Unspecified NONE
1142009-02-10 14:36ESTYesAB/MBUSGS-19200 Unspecified NONE
1132009-02-10 14:03ESTYesAB/MBUSGS-20200 Unspecified NONE
1122009-02-10 13:56ESTYesAB/MBUSGS-19800 Unspecified NONE
1112009-02-10 13:49ESTYesAB/MBUSGS-19800 Unspecified NONE
1102009-02-10 13:42ESTYesAB/MBUSGS-19000 Unspecified NONE
1092008-10-21 16:05EDTYesAB/AEUSGS12800 Unspecified NONE
1082008-10-21 15:55EDTYesAB/AEUSGS13100 Unspecified NONE
1072008-10-21 15:39EDTYesAB/AEUSGS13400 Unspecified NONE
1062008-10-21 15:29EDTYesAB/AEUSGS13700 Unspecified NONE
1052008-08-06 12:11EDTYesAB/AEUSGS14200 Unspecified NONE
1042008-08-06 12:02EDTYesAB/AEUSGS14300 Unspecified NONE
1032008-08-06 11:54EDTYesAB/AEUSGS14500 Unspecified NONE
1022008-08-06 11:46EDTYesAB/AEUSGS14500 Unspecified NONE
1012008-05-16 12:42EDTYesAE/MBUSGS-18400 Unspecified NONE
1002008-05-16 12:35EDTYesAE/MBUSGS-18600 Unspecified NONE
992008-05-16 12:29EDTYesAE/MBUSGS-18600 Unspecified NONE
982008-05-16 12:24EDTYesAE/MBUSGS-18800 Unspecified NONE
972008-05-16 12:08EDTYesAE/MBUSGS-19400 Unspecified NONE
962008-05-16 12:01EDTYesAE/MBUSGS-19800 Unspecified NONE
952008-03-13 12:30EDTYesCT/AEUSGS8950 Unspecified NONE
942008-03-13 12:21EDTYesCT/AEUSGS9120 Unspecified NONE
932008-03-13 12:11EDTYesCT/AEUSGS9040 Unspecified NONE
922008-03-13 12:03EDTYesCT/AEUSGS9140 Unspecified NONE
912007-11-05 13:59ESTYesLES/AEUSGS8260-0.20 Unspecified NONE
902007-11-05 13:50ESTYesLES/AEUSGS6630-0.16 Unspecified NONE
892007-11-05 13:42ESTYesLES/AEUSGS6130-0.12 Unspecified NONE
882007-11-05 13:33ESTYesLES/AEUSGS4650-0.07 Unspecified NONE
872007-11-05 13:26ESTYesLES/AEUSGS2490-0.02 Unspecified NONE
862007-11-05 13:17ESTYesLES/AEUSGS11200.04 Unspecified NONE
852007-11-05 13:10ESTYesLES/AEUSGS-9320.08 Unspecified NONE
842007-11-05 13:01ESTYesLES/AEUSGS-25800.14 Unspecified NONE
832007-11-05 12:52ESTYesLES/AEUSGS-41300.20 Unspecified NONE
822007-11-05 12:44ESTYesLES/AEUSGS-56300.25 Unspecified NONE
812007-01-24 16:43ESTYesCT/AEUSGS-193000.26 Unspecified NONE
802007-01-24 16:36ESTYesCT/AEUSGS-191000.23 Unspecified NONE
792007-01-24 16:25ESTYesCT/AEUSGS-191000.17 Unspecified NONE
782007-01-24 16:14ESTYesCT/AEUSGS-172000.10 Unspecified NONE
772007-01-24 16:03ESTYesCT/AEUSGS-176000.04 Unspecified NONE
762007-01-24 15:53ESTYesCT/AEUSGS-18200-0.04 Unspecified NONE
752007-01-24 15:45ESTYesCT/AEUSGS-15900-0.10 Unspecified NONE
742007-01-24 15:00ESTYesCT/AEUSGS-12700-0.47 Unspecified NONE
732007-01-24 14:49ESTYesCT/AEUSGS-11100-0.55 Unspecified NONE
722007-01-24 14:31ESTYesCT/AEUSGS-9340-0.62 Unspecified NONE
712007-01-24 14:17ESTYesCT/AEUSGS-6820-0.69 Unspecified NONE
702007-01-24 14:03ESTYesCT/AEUSGS-2090-0.84 Unspecified NONE
692007-01-24 13:51ESTYesCT/AEUSGS2090-0.97 Unspecified NONE
682007-01-24 13:36ESTYesCT/AEUSGS4650-1.12 Unspecified NONE
672007-01-24 13:25ESTYesCT/AEUSGS7150-1.21 Unspecified NONE
662007-01-24 13:13ESTYesCT/AEUSGS8140-1.30 Unspecified NONE
652007-01-24 13:01ESTYesCT/AEUSGS9620-1.37 Unspecified NONE
642007-01-24 12:36ESTYesCT/AEUSGS10500-1.43 Unspecified NONE
632007-01-24 12:24ESTYesCT/AEUSGS10800-1.42 Unspecified NONE
622007-01-24 12:03ESTYesCT/AEUSGS11400-1.39 Unspecified NONE
612007-01-24 11:53ESTYesCT/AEUSGS11200-1.37 Unspecified NONE
602007-01-24 11:22ESTYesCT/AEUSGS11600-1.30 Unspecified NONE
592007-01-24 11:12ESTYesCT/AEUSGS11400-1.27 Unspecified NONE
582007-01-24 10:51ESTYesCT/AEUSGS11400-1.22 Unspecified NONE
572007-01-24 10:42ESTYesCT/AEUSGS11400-1.20 Unspecified NONE
562007-01-24 10:22ESTYesCT/AEUSGS11500-1.14 Unspecified NONE
552007-01-24 10:03ESTYesCT/AEUSGS11200-1.09 Unspecified NONE
542007-01-24 09:33ESTYesCT/AEUSGS10900-0.99 Unspecified NONE
532007-01-24 09:21ESTYesCT/AEUSGS10900-0.96 Unspecified NONE
522007-01-24 08:56ESTYesCT/AEUSGS10400-0.88 Unspecified NONE
512007-01-24 08:46ESTYesCT/AEUSGS10300-0.84 Unspecified NONE
502007-01-24 08:37ESTYesCT/AEUSGS10300-0.81 Unspecified NONE
492007-01-24 08:28ESTYesCT/AEUSGS10100-0.77 Unspecified NONE
482007-01-24 08:19ESTYesCT/AEUSGS10300-0.73 Unspecified NONE
472007-01-24 08:10ESTYesCT/AEUSGS9020-0.69 Unspecified NONE
462005-07-06 14:20EDTYeslesUSGS-205000.94 Unspecified NONE
452005-07-06 14:14EDTYeslesUSGS-206000.93 Unspecified NONE
442005-07-06 14:08EDTYeslesUSGS-205000.93 Unspecified NONE
432005-07-06 14:00EDTYeslesUSGS-206000.93 Unspecified NONE
422002-10-04 11:26EDTYesLSUSGS-226000.77 Unspecified NONE
412002-10-04 11:11EDTYesLSUSGS-214000.66 Unspecified NONE
402002-10-04 11:06EDTYesLSUSGS-209000.61 Unspecified NONE
392002-10-04 11:00EDTYesLSUSGS-203000.56 Unspecified NONE
382002-10-04 10:54EDTYesLSUSGS-198000.51 Unspecified NONE
372002-10-04 10:48EDTYesLSUSGS-190000.46 Unspecified NONE
362002-10-04 10:12EDTYesLSUSGS-149000.18 Unspecified NONE
352002-10-04 09:59EDTYesLSUSGS-128000.08 Unspecified NONE
342002-10-04 09:48EDTYesLSUSGS-10800-0.03 Unspecified NONE
332001-10-03 13:58EDTYesLSUSGS-184000.51 Unspecified NONE
322001-10-03 13:53EDTYesLSUSGS-186000.47 Unspecified NONE
312001-10-03 13:46EDTYesLSUSGS-178000.43 Unspecified NONE
302001-10-03 13:40EDTYesLSUSGS-173000.38 Unspecified NONE
292001-10-03 13:29EDTYesLSUSGS-164000.30 Unspecified NONE
282001-10-03 13:22EDTYesLSUSGS-156000.23 Unspecified NONE
272001-10-03 13:14EDTYesLSUSGS-142000.16 Unspecified NONE
262001-10-03 13:08EDTYesLSUSGS-135000.12 Unspecified NONE
252001-10-03 13:00EDTYesLSUSGS-122000.08 Unspecified NONE
242001-10-03 12:50EDTYesLSUSGS-105000.02 Unspecified NONE
232001-10-03 12:40EDTYesLSUSGS-7950-0.06 Unspecified NONE
222001-10-03 12:31EDTYesLSUSGS-5560-0.12 Unspecified NONE
212001-10-03 12:30EDTYesLSUSGS-3340-0.17 Unspecified NONE
202001-05-09 12:17EDTYesLSUSGS-3040-1.00 Unspecified NONE
192001-05-09 12:12EDTYesLSUSGS-1850-1.04 Unspecified NONE
182001-05-09 12:06EDTYesLSUSGS-1060-1.09 Unspecified NONE
172001-05-09 11:58EDTYesLSUSGS355-1.13 Unspecified NONE
162001-05-09 11:53EDTYesLSUSGS1490-1.18 Unspecified NONE
152001-05-09 11:46EDTYesLSUSGS2710-1.22 Unspecified NONE
142001-05-09 11:40EDTYesLSUSGS3660-1.27 Unspecified NONE
132001-05-09 11:33EDTYesLSUSGS4640-1.36 Unspecified NONE
122001-05-09 11:27EDTYesLSUSGS5560-1.38 Unspecified NONE
112001-05-09 11:19EDTYesLSUSGS6440-1.43 Unspecified NONE
102001-05-09 11:13EDTYesLSUSGS6940-1.48 Unspecified NONE
92001-05-09 11:07EDTYesLSUSGS7620-1.52 Unspecified NONE
82001-05-09 11:00EDTYesLSUSGS7860-1.55 Unspecified NONE
72001-05-09 10:53EDTYesLSUSGS8170-1.57 Unspecified NONE
62001-05-09 10:46EDTYesLSUSGS8260-1.58 Unspecified NONE
52001-05-09 10:37EDTYesLSUSGS8910-1.58 Unspecified NONE
42001-04-19 12:25EDTYesLSUSGS-13100-0.93 Unspecified NONE
32001-04-19 12:18EDTYesLSUSGS-12800-0.96 Unspecified NONE
22001-04-19 12:11EDTYeslsUSGS-12900-0.99 Unspecified NONE
12001-04-19 12:07EDTYeslesUSGS-12400-1.03 Unspecified NONE